La Grange, TX

7:22 PM CST on March 03, 2015 (GMT -0600)
Horton Street, La Grange, Tx | Change Station
CLOSE
Current Station
Personal Weather Station
Location: La Grange, TX
Elevation: 344 ft
Nearby Weather Stations

Elev 344 ft 29.92 °N, 96.87 °W | Updated 19 seconds ago

Partly Cloudy
Partly Cloudy
71.1 °F
Feels Like 71 °F
N
1.8
Wind Variable Wind from SSW
Gusts 2.5 mph

Today
High -- | Low -- °F
--% Chance of Precip.
Yesterday
High -- | Low -- °F
Precip. -- in
6:51 AM 6:27 PM
Waxing Gibbous, 97% visible
Pressure 29.83 in
Visibility 10.0 miles
Clouds Scattered Clouds 2500 ft
Mostly Cloudy 3700 ft
Mostly Cloudy 4500 ft
Heat Index 71 °F
Dew Point 65 °F
Humidity 82%
Rainfall 0.00 in
Snow Depth Not available.
UV 0.0 out of 12
Pollen 7.60 out of 12
Air Quality Not available.
Flu Activity Not available.
METAR K3T5 040055Z AUTO 20004KT 10SM SCT025 BKN037 BKN045 22/19 A2983 RMK AO2 T02150186

More Conditions Fewer Conditions

Pressure 29.83 in
Visibility 10.0 miles
Clouds Scattered Clouds 2500 ft
Mostly Cloudy 3700 ft
Mostly Cloudy 4500 ft
Heat Index 71 °F
Dew Point 65 °F
Humidity 82%
Rainfall 0.00 in
Snow Depth Not available.
UV 0.0 out of 12
Pollen 7.60 out of 12
Air Quality Not available.
Flu Activity Not available.
METAR K3T5 040055Z AUTO 20004KT 10SM SCT025 BKN037 BKN045 22/19 A2983 RMK AO2 T02150186

More Conditions Fewer Conditions

Nowcast | as of 7:01 PM CST on March 3, 2015

Cloudy skies with very light patchy drizzle is expected to persist along the I-35 corridor this evening. Visibilities are ranging from 3/4 to 3 miles over some areas and even improving in another locations. However...expecting for ceilings and visibilities to lower later this evening as areas of fog develop and spread over most areas.

×

10-Day Weather Forecast

Almanac

Astronomy

Mar. 03, 2015 Rise Set
Actual Time
Civil Twilight
Nautical Twilight
Astronomical Twilight
Moon
Length of Visible Light
Length of Day
Tomorrow will be .
, % of the Moon is Illuminated

Today's Extremes

State Highs State Lows

Community

WunderPhotos

Upload Photos

1,802,342 photos uploaded!

WunderBlogs® & News

Nearby

Air Quality

  Air Quality AQ Index Pollutant
Not available.

Snow Depth

Station Depth Elevation

Earthquake Activity

City Distance Mag. Time & Date
Minimum magnitude displayed is 2.5.

Coastal Water Temperatures

Place Temperature

Nearby Weather Stations